Time;durP1;ratioP1;P1;durP2;ratioP2;P2;SDS_P1;SDS_P2;PMS_P1;PMS_P2;Temp;Humidity;BMP_temperature;BMP_pressure;BME280_temperature;BME280_humidity;BME280_pressure;Samples;Min_cycle;Max_cycle;Signal;HPM_P1;HPM_P2
2022/07/12 00:01:42;;;;;;;3.88;2.15;;;384.00;1331.20;;;;;;5033005;28;20033;-78
2022/07/12 00:04:08;;;;;;;5.72;1.90;;;384.10;1331.20;;;;;;5022570;28;20030;-79
2022/07/12 00:06:34;;;;;;;3.17;2.05;;;384.20;1305.60;;;;;;5031300;28;20044;-76
2022/07/12 00:08:59;;;;;;;4.45;1.88;;;384.00;1331.20;;;;;;5032628;28;20537;-76
2022/07/12 00:11:25;;;;;;;5.97;1.88;;;384.10;1331.20;;;;;;5033098;28;20120;-77
2022/07/12 00:13:51;;;;;;;8.05;2.53;;;384.20;1331.20;;;;;;5033043;28;20362;-78
2022/07/12 00:16:17;;;;;;;5.63;2.22;;;384.10;1331.20;;;;;;5021825;28;20068;-78
2022/07/12 00:18:42;;;;;;;6.22;2.20;;;384.10;1331.20;;;;;;5028804;28;20122;-78
2022/07/12 00:21:08;;;;;;;7.45;2.53;;;384.00;1356.80;;;;;;5034437;28;20380;-76
2022/07/12 00:23:35;;;;;;;5.45;2.60;;;384.00;1331.20;;;;;;5033352;28;20595;-75
2022/07/12 00:26:04;;;;;;;5.75;2.10;;;;;;;;;;5034044;28;20021;-78
2022/07/12 00:28:30;;;;;;;6.68;2.10;;;;;;;;;;5032540;28;20044;-77
2022/07/12 00:30:56;;;;;;;9.15;3.10;;;;;;;;;;5033822;28;20024;-76
2022/07/12 00:33:22;;;;;;;14.18;8.30;;;;;;;;;;5020389;28;20121;-76
2022/07/12 00:35:48;;;;;;;8.40;5.60;;;;;;;;;;5033206;28;20086;-76
2022/07/12 00:38:14;;;;;;;11.88;4.93;;;;;;;;;;5032673;28;20026;-76
2022/07/12 00:40:40;;;;;;;14.80;7.38;;;;;;;;;;5033542;28;20469;-75
2022/07/12 00:43:06;;;;;;;4.75;2.67;;;;;;;;;;5033591;28;20087;-75
2022/07/12 00:45:33;;;;;;;5.30;2.88;;;;;;;;;;5032202;28;20577;-76
2022/07/12 00:47:59;;;;;;;4.65;2.35;;;;;;;;;;5028241;28;20036;-76
2022/07/12 00:50:25;;;;;;;5.32;2.53;;;;;;;;;;5032457;28;20033;-75
2022/07/12 00:52:53;;;;;;;6.18;2.80;;;;;;;;;;5032264;28;20072;-74
2022/07/12 00:55:20;;;;;;;7.93;2.67;;;;;;;;;;5032347;28;20032;-77
2022/07/12 00:57:47;;;;;;;6.65;2.58;;;;;;;;;;5033277;28;20021;-75
2022/07/12 01:00:14;;;;;;;5.00;2.53;;;;;;;;;;5033205;28;20049;-75
2022/07/12 01:02:41;;;;;;;6.55;2.75;;;;;;;;;;5033115;28;20045;-78
2022/07/12 01:05:08;;;;;;;6.03;2.47;;;;;;;;;;5029921;28;20041;-79
2022/07/12 01:07:35;;;;;;;5.30;3.00;;;;;;;;;;5029346;28;20496;-76
2022/07/12 01:10:01;;;;;;;9.00;4.20;;;;;;;;;;5033480;28;20059;-76
2022/07/12 01:12:27;;;;;;;6.80;3.42;;;;;;;;;;5031907;28;20021;-76
2022/07/12 01:14:54;;;;;;;7.50;4.25;;;;;;;;;;5029192;28;20423;-79
2022/07/12 01:17:24;;;;;;;7.85;4.28;;;;;;;;;;5027431;28;20037;-79
2022/07/12 01:19:51;;;;;;;6.38;2.92;;;;;;;;;;5026421;28;20032;-77
2022/07/12 01:22:18;;;;;;;10.70;4.38;;;;;;;;;;5027520;28;20370;-76
2022/07/12 01:24:44;;;;;;;4.85;2.80;;;;;;;;;;5027708;28;20485;-83
2022/07/12 01:27:11;;;;;;;9.50;3.15;;;;;;;;;;5031480;28;20037;-77
2022/07/12 01:29:37;;;;;;;6.50;2.83;;;;;;;;;;5032864;28;20017;-75
2022/07/12 01:34:50;;;;;;;6.80;3.65;;;;;;;;;;5032156;28;20550;-75
2022/07/12 01:37:17;;;;;;;6.57;2.67;;;;;;;;;;5031556;28;20389;-75
2022/07/12 01:39:46;;;;;;;8.70;2.95;;;;;;;;;;5032576;28;20396;-77
2022/07/12 01:42:12;;;;;;;3.83;2.33;;;;;;;;;;5030774;28;20037;-75
2022/07/12 01:44:39;;;;;;;5.85;3.15;;;;;;;;;;5027554;28;20029;-76
2022/07/12 01:47:04;;;;;;;8.32;3.63;;;;;;;;;;5032787;28;20025;-76
2022/07/12 01:49:31;;;;;;;7.40;3.45;;;;;;;;;;5030827;28;20116;-79
2022/07/12 01:51:58;;;;;;;6.75;3.42;;;;;;;;;;5032678;28;20026;-75
2022/07/12 01:54:27;;;;;;;7.35;3.08;;;;;;;;;;5032199;28;20535;-76
2022/07/12 01:56:53;;;;;;;8.13;3.33;;;;;;;;;;5032562;28;20025;-77
2022/07/12 01:59:19;;;;;;;7.00;3.58;;;;;;;;;;5032024;28;20021;-76
2022/07/12 02:01:46;;;;;;;7.10;3.40;;;;;;;;;;5031011;28;20037;-75
2022/07/12 02:04:12;;;;;;;9.07;3.42;;;;;;;;;;5031035;28;20064;-77
2022/07/12 02:06:39;;;;;;;6.68;3.33;;;;;;;;;;5032475;28;20017;-75
2022/07/12 02:09:05;;;;;;;7.03;3.40;;;;;;;;;;5030652;28;20402;-75
2022/07/12 02:11:31;;;;;;;15.18;4.85;;;;;;;;;;5031796;28;20032;-76
2022/07/12 02:13:57;;;;;;;9.18;4.45;;;;;;;;;;5032108;28;20472;-76
2022/07/12 02:16:23;;;;;;;5.57;3.35;;;;;;;;;;5030189;28;20037;-77
2022/07/12 02:18:49;;;;;;;8.55;3.47;;;;;;;;;;5018883;28;20032;-77
2022/07/12 02:21:16;;;;;;;6.95;3.70;;;;;;;;;;5027285;28;20022;-80
2022/07/12 02:23:42;;;;;;;7.03;3.60;;;;;;;;;;5026497;28;20087;-77
2022/07/12 02:26:08;;;;;;;7.40;3.90;;;;;;;;;;5027073;28;20017;-79
2022/07/12 02:28:34;;;;;;;5.95;3.30;;;;;;;;;;5025438;28;20032;-76
2022/07/12 02:31:00;;;;;;;5.57;3.15;;;;;;;;;;5026555;28;20021;-76
2022/07/12 02:33:26;;;;;;;5.95;3.22;;;;;;;;;;5025595;28;20499;-77
2022/07/12 02:35:52;;;;;;;6.88;3.53;;;;;;;;;;5024366;28;20717;-76
2022/07/12 02:38:20;;;;;;;6.65;3.05;;;;;;;;;;5029416;28;20061;-76
2022/07/12 02:40:55;;;;;;;9.05;3.58;;;;;;;;;;5018154;28;20024;-76
2022/07/12 02:43:21;;;;;;;5.78;3.80;;;;;;;;;;5031540;28;20072;-76
2022/07/12 02:45:47;;;;;;;7.60;3.63;;;;;;;;;;5031742;28;20068;-77
2022/07/12 02:48:13;;;;;;;13.80;5.10;;;;;;;;;;5030371;28;20476;-75
2022/07/12 02:50:40;;;;;;;12.20;4.57;;;;;;;;;;5031765;28;20029;-77
2022/07/12 02:53:07;;;;;;;5.45;3.38;;;;;;;;;;5028131;28;20069;-77
2022/07/12 02:55:33;;;;;;;7.47;3.05;;;;;;;;;;5053407;28;20057;-78
2022/07/12 02:57:59;;;;;;;9.55;3.28;;;;;;;;;;5031262;28;20026;-78
2022/07/12 03:00:25;;;;;;;16.38;3.70;;;;;;;;;;5031266;28;20021;-77
2022/07/12 03:02:51;;;;;;;6.20;3.40;;;;;;;;;;5031480;28;20171;-79
2022/07/12 03:05:17;;;;;;;11.00;3.33;;;;;;;;;;5017408;28;20017;-76
2022/07/12 03:07:43;;;;;;;14.68;4.10;;;;;;;;;;5031185;28;20061;-76
2022/07/12 03:10:10;;;;;;;6.15;3.13;;;;;;;;;;5029897;28;20029;-77
2022/07/12 03:12:36;;;;;;;7.13;2.88;;;;;;;;;;5029753;28;20026;-78
2022/07/12 03:15:03;;;;;;;12.73;3.38;;;;;;;;;;5031269;28;20049;-77
2022/07/12 03:17:29;;;;;;;6.78;3.95;;;;;;;;;;5030207;28;20057;-77
2022/07/12 03:19:55;;;;;;;6.63;3.05;;;;;;;;;;5029565;28;20057;-75
2022/07/12 03:22:21;;;;;;;4.85;2.67;;;;;;;;;;5016818;28;20034;-75
2022/07/12 03:24:47;;;;;;;8.02;3.53;;;;;;;;;;5030127;28;20026;-75
2022/07/12 03:27:13;;;;;;;8.20;3.17;;;;;;;;;;5026468;28;20072;-77
2022/07/12 03:29:39;;;;;;;13.07;3.60;;;;;;;;;;5022200;28;20032;-76
2022/07/12 03:32:06;;;;;;;6.70;3.10;;;;;;;;;;5031013;28;20453;-76
2022/07/12 03:34:32;;;;;;;6.68;3.10;;;;;;;;;;5029764;28;20465;-76
2022/07/12 03:36:58;;;;;;;8.73;3.25;;;;;;;;;;5030366;28;20484;-77
2022/07/12 03:39:24;;;;;;;9.15;3.17;;;;;;;;;;5029773;28;20036;-76
2022/07/12 03:41:50;;;;;;;8.20;3.50;;;;;;;;;;5030765;28;20029;-76
2022/07/12 03:44:16;;;;;;;8.52;3.30;;;;;;;;;;5032097;28;20431;-79
2022/07/12 03:46:42;;;;;;;10.38;4.25;;;;;;;;;;5034630;28;20517;-78
2022/07/12 03:49:08;;;;;;;7.75;3.28;;;;;;;;;;5034411;28;20018;-78
2022/07/12 03:51:34;;;;;;;6.18;3.70;;;;;;;;;;5034672;28;20048;-79
2022/07/12 03:54:00;;;;;;;12.60;4.50;;;;;;;;;;5034405;28;20373;-76
2022/07/12 03:59:11;;;;;;;24.50;10.35;;;;;;;;;;5034258;28;20514;-77
2022/07/12 04:01:37;;;;;;;10.70;6.95;;;;;;;;;;5032872;28;20049;-77
2022/07/12 04:04:03;;;;;;;20.08;4.60;;;;;;;;;;5033137;28;20029;-75
2022/07/12 04:06:29;;;;;;;9.65;4.70;;;;;;;;;;5034319;28;20022;-77
2022/07/12 04:08:55;;;;;;;8.38;3.70;;;;;;;;;;5032748;28;20045;-79
2022/07/12 04:11:21;;;;;;;10.38;6.22;;;;;;;;;;5033034;28;20500;-78
2022/07/12 04:13:47;;;;;;;9.65;5.25;;;;;;;;;;5033862;28;20392;-77
2022/07/12 04:16:13;;;;;;;10.10;5.03;;;;;;;;;;5032966;28;20410;-75
2022/07/12 04:18:39;;;;;;;14.90;5.47;;;;;;;;;;5032629;28;20165;-77
2022/07/12 04:21:05;;;;;;;7.97;4.63;;;;;;;;;;5034135;28;20107;-79
2022/07/12 04:23:31;;;;;;;7.88;3.70;;;;;;;;;;5033581;28;20040;-77
2022/07/12 04:25:58;;;;;;;6.88;4.22;;;;;;;;;;5029325;28;20025;-78
2022/07/12 04:28:24;;;;;;;7.47;4.20;;;;;;;;;;5028291;28;20029;-75
2022/07/12 04:30:50;;;;;;;7.00;3.83;;;;;;;;;;5032528;28;20072;-76
2022/07/12 04:33:16;;;;;;;10.60;4.43;;;;;;;;;;5032717;28;20021;-78
2022/07/12 04:35:42;;;;;;;10.15;3.90;;;;;;;;;;5033871;28;20021;-76
2022/07/12 04:38:08;;;;;;;9.07;3.83;;;;;;;;;;5033543;28;20017;-77
2022/07/12 04:40:34;;;;;;;18.95;4.38;;;;;;;;;;5018462;28;20033;-77
2022/07/12 04:43:01;;;;;;;11.23;4.57;;;;;;;;;;5032403;28;20064;-75
2022/07/12 04:45:27;;;;;;;8.57;4.10;;;;;;;;;;5032494;28;20021;-76
2022/07/12 04:47:53;;;;;;;14.68;3.58;;;;;;;;;;5033853;28;20048;-77
2022/07/12 04:50:19;;;;;;;7.40;3.45;;;;;;;;;;5033323;28;20087;-77
2022/07/12 04:52:45;;;;;;;12.82;4.25;;;;;;;;;;5033790;28;20033;-78
2022/07/12 04:55:11;;;;;;;11.45;4.40;;;;;;;;;;5032250;28;20064;-76
2022/07/12 04:57:37;;;;;;;10.02;4.38;;;;;;;;;;5033359;28;20033;-77
2022/07/12 05:00:07;;;;;;;14.00;4.05;;;;;;;;;;5032977;28;20063;-78
2022/07/12 05:02:33;;;;;;;11.32;4.38;;;;;;;;;;5031948;28;20083;-77
2022/07/12 05:04:59;;;;;;;14.40;3.88;;;;;;;;;;5031774;28;20014;-78
2022/07/12 05:07:25;;;;;;;12.32;3.88;;;;;;;;;;5032859;28;20026;-77
2022/07/12 05:09:52;;;;;;;9.10;3.88;;;;;;;;;;5031771;28;20076;-78
2022/07/12 05:12:18;;;;;;;9.63;3.72;;;;;;;;;;5030677;28;20026;-76
2022/07/12 05:14:44;;;;;;;12.60;4.05;;;;;;;;;;5030970;28;20030;-77
2022/07/12 05:17:11;;;;;;;15.15;5.28;;;;;;;;;;5031799;28;20030;-73
2022/07/12 05:19:40;;;;;;;10.02;4.18;;;;;;;;;;5031154;28;20076;-73
2022/07/12 05:22:06;;;;;;;10.38;3.95;;;;;;;;;;5031813;28;20109;-73
2022/07/12 05:24:32;;;;;;;7.18;4.20;;;;;;;;;;5031816;28;20498;-73
2022/07/12 05:26:58;;;;;;;8.15;3.20;;;;;;;;;;5031943;28;20477;-73
2022/07/12 05:29:24;;;;;;;18.25;3.75;;;410.10;1305.60;;;;;;5032050;28;20080;-74
2022/07/12 05:31:49;;;;;;;8.13;3.65;;;409.80;1331.20;;;;;;5030942;28;20026;-74
2022/07/12 05:34:15;;;;;;;12.57;3.88;;;410.10;1305.60;;;;;;5032085;28;20120;-73
2022/07/12 05:36:41;;;;;;;11.20;4.45;;;409.90;1331.20;;;;;;5030364;28;20037;-74
2022/07/12 05:39:06;;;;;;;11.90;5.28;;;410.10;1331.20;;;;;;5032309;28;20531;-73
2022/07/12 05:41:32;;;;;;;11.13;4.75;;;410.10;1331.20;;;;;;5029802;28;20029;-73
2022/07/12 05:43:58;;;;;;;11.93;4.22;;;410.20;1331.20;;;;;;5022223;28;20052;-73
2022/07/12 05:46:24;;;;;;;15.48;4.13;;;410.20;1305.60;;;;;;5027169;28;20049;-73
2022/07/12 05:48:50;;;;;;;12.00;4.95;;;410.30;1305.60;;;;;;5029393;28;20025;-74
2022/07/12 05:54:00;;;;;;;16.67;4.72;;;410.40;1280.00;;;;;;5029838;28;20035;-74
2022/07/12 05:56:25;;;;;;;14.30;4.25;;;410.40;1305.60;;;;;;5032039;28;20030;-74
2022/07/12 05:58:51;;;;;;;11.75;3.45;;;435.20;1305.60;;;;;;5030259;28;20468;-75
2022/07/12 06:01:18;;;;;;;15.77;4.65;;;435.30;1280.00;;;;;;5031212;28;20391;-74
2022/07/12 06:03:43;;;;;;;6.40;2.85;;;435.40;1254.40;;;;;;5031622;28;20510;-75
2022/07/12 06:06:09;;;;;;;6.72;3.45;;;435.50;1177.60;;;;;;5031482;28;20061;-75
2022/07/12 06:08:35;;;;;;;6.57;3.30;;;435.70;1152.00;;;;;;5031633;28;20140;-74
2022/07/12 06:11:01;;;;;;;4.43;2.60;;;435.70;1100.80;;;;;;5030029;28;20108;-75
2022/07/12 06:13:27;;;;;;;6.53;3.00;;;435.90;1100.80;;;;;;5029606;28;20569;-74
2022/07/12 06:15:53;;;;;;;20.55;9.43;;;435.90;1100.80;;;;;;5029654;28;20029;-74
2022/07/12 06:18:19;;;;;;;6.43;3.13;;;436.00;1100.80;;;;;;5029417;28;20021;-75
2022/07/12 06:20:44;;;;;;;10.38;6.55;;;460.80;1126.40;;;;;;5030007;28;20044;-74
2022/07/12 06:23:10;;;;;;;11.80;5.63;;;;;;;;;;5029361;28;20034;-74
2022/07/12 06:25:36;;;;;;;8.98;3.50;;;;;;;;;;5024506;28;20026;-74
2022/07/12 06:28:02;;;;;;;15.18;3.58;;;;;;;;;;5022499;28;20029;-74
2022/07/12 06:30:28;;;;;;;5.55;3.42;;;;;;;;;;5031357;28;20100;-74
2022/07/12 06:32:54;;;;;;;8.63;2.72;;;;;;;;;;5031623;28;20017;-75
2022/07/12 06:35:21;;;;;;;7.05;3.00;;;;;;;;;;5029887;28;20029;-74
2022/07/12 06:37:47;;;;;;;15.32;4.38;;;;;;;;;;5031463;28;20049;-74
2022/07/12 06:40:16;;;;;;;13.38;3.10;;;;;;;;;;5030204;28;20412;-74
2022/07/12 06:42:42;;;;;;;13.32;4.43;;;;;;;;;;5030910;28;20057;-74
2022/07/12 06:45:09;;;;;;;6.70;3.60;;;;;;;;;;5031483;28;20473;-74
2022/07/12 06:47:35;;;;;;;6.70;2.85;;;;;;;;;;5031222;28;20095;-74
2022/07/12 06:50:01;;;;;;;3.67;2.00;;;486.70;947.20;;;;;;5031392;28;20021;-74
2022/07/12 06:52:26;;;;;;;6.53;2.60;;;486.70;921.60;;;;;;5031066;28;20032;-74
2022/07/12 06:54:52;;;;;;;4.82;2.35;;;486.60;921.60;;;;;;5030929;28;20065;-74
2022/07/12 06:57:18;;;;;;;5.40;2.50;;;486.50;947.20;;;;;;5031269;28;20029;-73
2022/07/12 06:59:44;;;;;;;5.20;2.30;;;486.60;947.20;;;;;;5015925;28;20073;-73
2022/07/12 07:02:10;;;;;;;10.15;3.63;;;;;;;;;;5030909;28;20140;-74
2022/07/12 07:04:36;;;;;;;11.45;3.05;;;;;;;;;;5031306;28;20104;-74
2022/07/12 07:07:02;;;;;;;6.30;3.20;;;;;;;;;;5030916;28;20030;-74
2022/07/12 07:09:28;;;;;;;6.28;2.75;;;;;;;;;;5030954;28;20034;-74
2022/07/12 07:11:54;;;;;;;5.10;2.42;;;;;;;;;;5031136;28;20511;-74
2022/07/12 07:14:20;;;;;;;3.72;1.60;;;;;;;;;;5030404;28;20580;-74
2022/07/12 07:16:46;;;;;;;2.08;1.27;;;;;;;;;;5030762;28;20477;-74
2022/07/12 07:19:12;;;;;;;3.85;1.65;;;;;;;;;;5019249;28;20132;-74
2022/07/12 07:21:38;;;;;;;6.85;1.52;;;;;;;;;;5034829;28;20032;-74
2022/07/12 07:24:04;;;;;;;5.95;2.03;;;;;;;;;;5020926;28;20433;-73
2022/07/12 07:26:32;;;;;;;4.40;1.80;;;;;;;;;;5033483;28;20472;-73
2022/07/12 07:31:43;;;;;;;4.13;1.52;;;;;;;;;;5034221;28;20036;-73
2022/07/12 07:34:09;;;;;;;5.63;1.80;;;;;;;;;;5034572;28;20033;-73
2022/07/12 07:36:35;;;;;;;5.75;1.50;;;512.90;588.80;;;;;;5032880;28;20517;-74
2022/07/12 07:39:01;;;;;;;7.78;2.22;;;512.80;588.80;;;;;;5034541;28;20104;-74
2022/07/12 07:41:26;;;;;;;7.75;1.98;;;512.70;614.40;;;;;;5034034;28;20026;-73
2022/07/12 07:43:52;;;;;;;3.47;1.73;;;512.50;640.00;;;;;;5029727;28;20072;-75
2022/07/12 07:46:18;;;;;;;4.68;1.70;;;512.50;665.60;;;;;;5028439;28;20071;-74
2022/07/12 07:48:44;;;;;;;7.28;3.65;;;;;;;;;;5033980;28;20022;-73
2022/07/12 07:51:10;;;;;;;6.90;3.28;;;;;;;;;;5033996;28;20058;-73
2022/07/12 07:53:36;;;;;;;3.83;1.80;;;;;;;;;;5034263;28;20124;-74
2022/07/12 07:56:02;;;;;;;7.60;1.75;;;;;;;;;;5033912;28;20049;-73
2022/07/12 07:58:28;;;;;;;8.27;1.70;;;;;;;;;;5034427;28;20104;-74
2022/07/12 08:00:55;;;;;;;12.85;3.10;;;;;;;;;;5034290;28;20049;-73
2022/07/12 08:03:21;;;;;;;5.78;2.10;;;;;;;;;;5034267;28;20485;-73
2022/07/12 08:05:50;;;;;;;6.78;1.92;;;;;;;;;;5033677;28;20030;-74
2022/07/12 08:08:16;;;;;;;3.40;1.60;;;;;;;;;;5033689;28;20416;-74
2022/07/12 08:10:43;;;;;;;6.65;2.47;;;;;;;;;;5033692;28;20400;-74
2022/07/12 08:13:09;;;;;;;3.08;1.30;;;;;;;;;;5032736;28;20524;-74
2022/07/12 08:15:35;;;;;;;3.20;1.30;;;;;;;;;;5033893;28;20052;-74
2022/07/12 08:18:03;;;;;;;6.78;2.00;;;;;;;;;;5032248;28;20499;-74
2022/07/12 08:20:29;;;;;;;3.42;1.55;;;;;;;;;;5033646;28;20472;-74
2022/07/12 08:22:55;;;;;;;4.72;1.90;;;;;;;;;;5033442;28;20495;-74
2022/07/12 08:25:21;;;;;;;5.35;1.83;;;;;;;;;;5033556;28;20536;-74
2022/07/12 08:27:47;;;;;;;6.20;1.75;;;;;;;;;;5032238;28;20032;-75
2022/07/12 08:30:14;;;;;;;4.18;1.60;;;;;;;;;;5033661;28;20056;-74
2022/07/12 08:32:44;;;;;;;5.13;2.40;;;;;;;;;;5033684;28;20021;-74
2022/07/12 08:35:10;;;;;;;8.30;2.50;;;;;;;;;;5033387;28;20017;-74
2022/07/12 08:37:36;;;;;;;5.05;2.03;;;;;;;;;;5033228;28;20071;-74
2022/07/12 08:40:02;;;;;;;9.93;2.13;;;;;;;;;;5014502;28;20156;-74
2022/07/12 08:42:28;;;;;;;7.28;1.90;;;;;;;;;;5023634;28;20034;-74
2022/07/12 08:44:55;;;;;;;4.35;1.70;;;;;;;;;;5033290;28;20534;-74
2022/07/12 08:47:21;;;;;;;4.70;2.35;;;;;;;;;;5033410;28;20022;-75
2022/07/12 08:50:29;;;;;;;3.30;1.80;;;;;;;;;;5033104;28;20030;-74
2022/07/12 08:52:56;;;;;;;5.18;1.58;;;;;;;;;;5010524;28;20486;-75
2022/07/12 08:55:24;;;;;;;6.53;2.40;;;;;;;;;;5011132;28;20030;-74
2022/07/12 08:57:51;;;;;;;7.88;2.40;;;;;;;;;;5022046;28;20033;-74
2022/07/12 09:00:18;;;;;;;6.13;2.70;;;;;;;;;;5033062;28;20021;-74
2022/07/12 09:02:45;;;;;;;5.40;1.40;;;;;;;;;;5031437;28;20393;-74
2022/07/12 09:05:11;;;;;;;5.88;2.30;;;;;;;;;;5032702;28;20080;-74
2022/07/12 09:07:38;;;;;;;8.43;2.00;;;;;;;;;;5031305;28;20033;-74
2022/07/12 09:10:07;;;;;;;7.13;1.83;;;;;;;;;;5032699;28;20026;-75
2022/07/12 09:12:34;;;;;;;2.78;1.67;;;;;;;;;;5032509;28;20523;-75
2022/07/12 09:15:12;;;;;;;9.57;6.57;;;;;;;;;;5032563;28;20056;-74
2022/07/12 09:17:39;;;;;;;6.53;2.45;;;;;;;;;;5032619;28;20380;-75
2022/07/12 09:20:05;;;;;;;6.60;2.17;;;;;;;;;;5032148;28;20052;-74
2022/07/12 09:22:31;;;;;;;6.72;4.13;;;;;;;;;;5032944;28;20065;-75
2022/07/12 09:24:57;;;;;;;8.75;3.30;;;;;;;;;;5031923;28;20026;-74
2022/07/12 09:27:26;;;;;;;6.90;3.00;;;;;;;;;;5029692;28;20017;-75
2022/07/12 09:29:52;;;;;;;5.00;1.52;;;;;;;;;;5032278;28;20021;-75
2022/07/12 09:37:49;;;;;;;6.47;3.42;;;;;;;;;;5030059;28;20095;-75
2022/07/12 09:40:15;;;;;;;7.32;2.22;;;;;;;;;;5031834;28;20072;-76
2022/07/12 09:42:42;;;;;;;3.63;1.60;;;;;;;;;;5031492;28;20041;-75
2022/07/12 09:45:09;;;;;;;3.75;1.77;;;;;;;;;;5031346;28;20021;-76
2022/07/12 09:47:35;;;;;;;5.63;1.67;;;;;;;;;;5030609;28;20021;-74
2022/07/12 09:50:02;;;;;;;4.32;1.52;;;;;;;;;;5030500;28;20068;-75
2022/07/12 09:52:28;;;;;;;4.53;2.50;;;;;;;;;;5031400;28;20037;-75
2022/07/12 09:54:55;;;;;;;3.75;1.15;;;;;;;;;;5031777;28;20013;-75
2022/07/12 09:57:24;;;;;;;3.97;1.25;;;;;;;;;;5032010;28;20025;-75
2022/07/12 09:59:52;;;;;;;4.53;1.63;;;;;;;;;;5031691;28;20093;-75
2022/07/12 10:02:18;;;;;;;4.57;1.85;;;;;;;;;;5030564;28;20471;-75
2022/07/12 10:04:46;;;;;;;3.28;1.13;;;;;;;;;;5030704;28;20045;-76
2022/07/12 10:07:16;;;;;;;2.03;1.20;;;;;;;;;;5029364;28;20472;-75
2022/07/12 10:09:43;;;;;;;1.88;0.70;;;;;;;;;;5030516;28;20040;-77
2022/07/12 10:12:10;;;;;;;3.90;1.05;;;;;;;;;;5030266;28;20025;-76
2022/07/12 10:14:37;;;;;;;3.03;1.60;;;;;;;;;;5028833;28;20068;-75
2022/07/12 10:17:07;;;;;;;8.32;2.50;;;;;;;;;;5030954;28;20384;-75
2022/07/12 10:19:35;;;;;;;6.72;2.10;;;;;;;;;;5030167;28;20029;-75
2022/07/12 10:22:02;;;;;;;2.17;1.23;;;;;;;;;;5030678;28;20033;-74
2022/07/12 10:24:31;;;;;;;2.33;1.35;;;;;;;;;;5029333;28;20380;-74
2022/07/12 10:27:15;;;;;;;4.05;1.52;;;;;;;;;;5029339;28;20033;-77
2022/07/12 10:29:42;;;;;;;4.40;1.45;;;;;;;;;;5031366;28;20026;-77
2022/07/12 10:32:25;;;;;;;2.80;1.35;;;;;;;;;;5030042;28;20164;-78
2022/07/12 10:35:07;;;;;;;8.77;1.30;;;;;;;;;;5031400;28;20033;-76
2022/07/12 10:37:34;;;;;;;4.18;1.38;;;;;;;;;;5017097;28;20097;-76
2022/07/12 10:40:17;;;;;;;5.25;1.55;;;;;;;;;;5031731;28;20049;-76
2022/07/12 10:43:04;;;;;;;4.20;1.52;;;;;;;;;;5029597;28;20030;-75
2022/07/12 10:45:34;;;;;;;5.03;3.22;;;;;;;;;;5029999;28;20025;-78
2022/07/12 10:48:05;;;;;;;4.93;3.25;;;;;;;;;;5031101;28;20135;-77
2022/07/12 10:51:00;;;;;;;2.50;1.45;;;;;;;;;;5029893;28;20025;-77
2022/07/12 10:53:26;;;;;;;5.40;1.60;;;;;;;;;;5027394;28;20048;-78
2022/07/12 10:56:16;;;;;;;2.33;0.90;;;;;;;;;;5033756;28;20017;-79
2022/07/12 10:58:46;;;;;;;2.90;1.63;;;;;;;;;;5019671;28;20034;-78
2022/07/12 11:01:17;;;;;;;6.45;2.53;;;;;;;;;;5035655;28;20021;-80
2022/07/12 11:03:43;;;;;;;1.88;1.00;;;;;;;;;;5034114;28;20038;-77
2022/07/12 11:06:10;;;;;;;7.88;3.03;;;;;;;;;;5034335;28;20087;-77
2022/07/12 11:08:53;;;;;;;7.28;1.77;;;;;;;;;;5033719;28;20037;-78
2022/07/12 11:11:21;;;;;;;3.42;1.48;;;;;;;;;;5034088;28;20079;-81
2022/07/12 11:13:47;;;;;;;4.53;1.48;;;;;;;;;;5033581;28;20117;-79
2022/07/12 11:16:13;;;;;;;2.92;0.98;;;;;;;;;;5035425;28;20053;-78
2022/07/12 11:18:39;;;;;;;6.22;3.50;;;;;;;;;;5033599;28;20017;-78
2022/07/12 11:21:06;;;;;;;3.83;1.60;;;;;;;;;;5035032;28;20032;-77
2022/07/12 11:23:32;;;;;;;4.72;1.65;;;;;;;;;;5033452;28;20723;-78
2022/07/12 11:25:59;;;;;;;9.95;3.15;;;;;;;;;;5033252;28;20025;-79
2022/07/12 11:28:25;;;;;;;1.55;1.17;;;;;;;;;;5034975;28;20030;-79
2022/07/12 11:30:52;;;;;;;4.55;1.63;;;;;;;;;;5033652;28;20017;-79
2022/07/12 11:33:18;;;;;;;4.03;1.50;;;;;;;;;;5033566;28;20120;-79
2022/07/12 11:35:45;;;;;;;10.07;1.90;;;;;;;;;;5034356;28;20427;-79
2022/07/12 11:38:11;;;;;;;4.32;1.92;;;;;;;;;;5021520;28;20041;-78
2022/07/12 11:40:37;;;;;;;3.10;1.40;;;;;;;;;;5033381;28;20755;-76
2022/07/12 11:43:04;;;;;;;0.95;0.75;;;;;;;;;;5033171;28;20030;-78
2022/07/12 11:45:32;;;;;;;3.72;1.40;;;;;;;;;;5032965;28;20088;-79
2022/07/12 11:48:02;;;;;;;4.28;1.00;;;;;;;;;;5029600;28;20109;-78
2022/07/12 11:50:34;;;;;;;3.38;0.90;;;;;;;;;;5056637;28;20511;-76
2022/07/12 11:53:00;;;;;;;2.17;1.02;;;;;;;;;;5033239;28;20025;-78
2022/07/12 11:55:26;;;;;;;4.55;1.50;;;;;;;;;;5028656;28;20022;-78
2022/07/12 11:58:03;;;;;;;6.05;1.75;;;;;;;;;;5032919;28;20025;-77
2022/07/12 12:00:29;;;;;;;4.05;1.92;;;;;;;;;;5032653;28;20021;-78
2022/07/12 12:02:55;;;;;;;2.40;1.50;;;;;;;;;;5032705;28;20040;-78
2022/07/12 12:05:21;;;;;;;2.90;1.23;;;;;;;;;;5032346;28;20077;-78
2022/07/12 12:07:48;;;;;;;3.45;1.40;;;;;;;;;;5031618;28;20131;-77
2022/07/12 12:10:15;;;;;;;5.30;1.30;;;;;;;;;;5032548;28;20380;-78
2022/07/12 12:12:46;;;;;;;1.98;1.27;;;;;;;;;;5032594;28;20160;-77
2022/07/12 12:15:13;;;;;;;3.25;1.10;;;;;;;;;;5033822;28;20030;-77
2022/07/12 12:17:43;;;;;;;3.80;1.17;;;;;;;;;;5032720;28;20025;-77
2022/07/12 12:20:19;;;;;;;5.18;1.20;;;;;;;;;;5033623;28;20097;-79
2022/07/12 12:22:46;;;;;;;2.05;0.65;;;;;;;;;;5032558;28;20044;-80
2022/07/12 12:25:14;;;;;;;3.60;1.40;;;;;;;;;;5032535;28;20021;-77
2022/07/12 12:27:46;;;;;;;4.57;1.60;;;;;;;;;;5025512;28;20428;-80
2022/07/12 12:30:12;;;;;;;2.47;1.30;;;;;;;;;;5042641;28;20025;-76
2022/07/12 12:32:45;;;;;;;4.50;1.95;;;;;;;;;;5019817;28;20024;-77
2022/07/12 12:35:12;;;;;;;3.45;1.45;;;;;;;;;;5031993;28;20060;-77
2022/07/12 12:37:38;;;;;;;2.10;1.13;;;;;;;;;;5031910;28;20036;-79
2022/07/12 12:40:05;;;;;;;4.07;1.52;;;;;;;;;;5032333;28;20064;-78
2022/07/12 12:42:31;;;;;;;3.58;2.25;;;;;;;;;;5032083;28;20076;-79
2022/07/12 12:44:57;;;;;;;3.63;2.03;;;;;;;;;;5031739;28;20071;-79
2022/07/12 12:47:33;;;;;;;2.17;1.38;;;;;;;;;;5033343;28;20017;-77
2022/07/12 12:50:00;;;;;;;6.00;2.17;;;;;;;;;;5033303;28;20021;-78
2022/07/12 12:52:27;;;;;;;4.53;1.30;;;;;;;;;;5032206;28;20461;-78
2022/07/12 12:54:54;;;;;;;2.55;1.20;;;;;;;;;;5031485;28;20065;-75
2022/07/12 12:57:21;;;;;;;2.38;1.55;;;;;;;;;;5033299;28;20071;-78
2022/07/12 12:59:47;;;;;;;5.47;1.50;;;;;;;;;;5032783;28;20056;-79
2022/07/12 13:02:13;;;;;;;4.68;1.70;;;;;;;;;;5031627;28;20037;-78
2022/07/12 13:04:39;;;;;;;5.55;1.77;;;;;;;;;;5030950;28;20544;-78
2022/07/12 13:07:06;;;;;;;3.15;1.60;;;;;;;;;;5051781;28;20020;-79
2022/07/12 13:09:32;;;;;;;2.55;1.42;;;;;;;;;;5032074;28;20156;-78
2022/07/12 13:11:59;;;;;;;2.72;1.05;;;;;;;;;;5031670;28;20547;-81
2022/07/12 13:14:26;;;;;;;2.53;1.15;;;;;;;;;;5032072;28;20045;-82
2022/07/12 13:16:52;;;;;;;2.55;1.25;;;;;;;;;;5030835;28;20006;-78
2022/07/12 13:19:18;;;;;;;11.45;2.00;;;;;;;;;;5031827;28;20037;-81
2022/07/12 13:21:44;;;;;;;7.85;2.17;;;;;;;;;;5030268;28;20496;-81
2022/07/12 13:24:10;;;;;;;10.45;4.97;;;;;;;;;;5031473;28;20026;-77
2022/07/12 13:26:37;;;;;;;10.52;7.07;;;;;;;;;;5031434;28;20028;-79
2022/07/12 13:29:03;;;;;;;6.68;2.72;;;;;;;;;;5031178;28;20147;-81
2022/07/12 13:31:29;;;;;;;3.92;1.35;;;;;;;;;;5031770;28;20092;-80
2022/07/12 13:33:56;;;;;;;4.75;2.20;;;;;;;;;;5031257;28;20104;-78
2022/07/12 13:36:22;;;;;;;6.32;1.42;;;;;;;;;;5032002;28;20028;-78
2022/07/12 13:38:48;;;;;;;2.63;1.70;;;;;;;;;;5031335;28;20021;-79
2022/07/12 13:41:14;;;;;;;2.60;1.60;;;;;;;;;;5031288;28;20060;-78
2022/07/12 13:43:41;;;;;;;5.13;1.95;;;;;;;;;;5031324;28;20033;-78
2022/07/12 13:46:07;;;;;;;3.95;1.30;;;;;;;;;;5031229;28;20014;-79
2022/07/12 13:48:36;;;;;;;3.40;1.90;;;;;;;;;;5031393;28;20476;-79
2022/07/12 13:51:02;;;;;;;1.80;1.42;;;;;;;;;;5031217;28;20036;-78
2022/07/12 13:53:28;;;;;;;3.92;1.33;;;;;;;;;;5032623;28;20062;-81
2022/07/12 13:55:54;;;;;;;6.07;4.10;;;;;;;;;;5031124;28;20075;-79
2022/07/12 13:58:20;;;;;;;4.53;3.15;;;;;;;;;;5031290;28;20108;-79
2022/07/12 14:00:46;;;;;;;8.80;4.10;;;;;;;;;;5031019;28;20021;-80
2022/07/12 14:03:12;;;;;;;5.35;2.80;;;;;;;;;;5030730;28;20397;-78
2022/07/12 14:05:39;;;;;;;4.75;2.50;;;;;;;;;;5031525;28;20014;-80
2022/07/12 14:08:05;;;;;;;4.95;2.60;;;;;;;;;;5030134;28;20048;-77
2022/07/12 14:10:33;;;;;;;4.15;1.40;;;;;;;;;;5031092;28;20041;-76
2022/07/12 14:13:00;;;;;;;7.05;2.72;;;;;;;;;;5032439;28;20108;-78
2022/07/12 14:15:36;;;;;;;5.20;2.33;;;;;;;;;;5032529;28;20053;-80
2022/07/12 14:18:04;;;;;;;3.65;2.15;;;;;;;;;;5031081;28;20075;-77
2022/07/12 14:20:31;;;;;;;4.10;2.50;;;;;;;;;;5029863;28;20024;-78
2022/07/12 14:22:57;;;;;;;3.38;2.38;;;;;;;;;;5029901;28;20029;-78
2022/07/12 14:25:23;;;;;;;4.93;2.90;;;;;;;;;;5030584;28;20025;-79
2022/07/12 14:27:49;;;;;;;2.65;2.08;;;;;;;;;;5016577;28;20448;-80
2022/07/12 14:30:15;;;;;;;3.72;1.90;;;;;;;;;;5031644;28;20025;-78
2022/07/12 14:32:42;;;;;;;7.00;2.60;;;;;;;;;;5027720;28;20052;-78
2022/07/12 14:35:08;;;;;;;1.08;0.82;;;;;;;;;;5031386;28;20104;-77
2022/07/12 14:37:35;;;;;;;3.47;1.20;;;;;;;;;;5031443;28;20028;-79